FASY weather

Syferfontein Airport
Hiltonia, Gauteng, South Africa

Public forecast

Using degrees Celsius for public forecast. Weather courtesy of forecast.io.

METAR (pilot weather report)

Report is more than 6 hours old.

Closest report is Vereeniging Airport, 16.3 nm (30.2 km) SE. Retrieved 2019/03/13 06:00 UTC (3 months ago):

FAVV 130600Z AUTO 04001KT //// // ////// 19/16 Q1024

TAF (pilot weather forecast)

Closest forecast is Lanseria Airport, 25.9 nm (48.0 km) NNE. Retrieved 2019/05/27 12:00 UTC (57 minutes ago):

TAF FALA 271000Z 2712/2812 VRB03KT CAVOK TX22/2712Z TN07/2805Z